Time;durP1;ratioP1;P1;durP2;ratioP2;P2;SDS_P1;SDS_P2;PMS_P1;PMS_P2;Temp;Humidity;BMP_temperature;BMP_pressure;BME280_temperature;BME280_humidity;BME280_pressure;Samples;Min_cycle;Max_cycle;Signal;HPM_P1;HPM_P2
2022/09/17 00:00:11;;;;;;;3.55;1.40;;;;;;;28.28;44.62;97982.84;6161370;23;20142;-93
2022/09/17 00:02:40;;;;;;;3.50;1.35;;;;;;;28.31;44.61;97970.81;6161011;23;20213;-94
2022/09/17 00:05:09;;;;;;;7.15;2.33;;;;;;;28.31;44.91;97976.19;6156038;23;20209;-94
2022/09/17 00:07:45;;;;;;;4.32;1.20;;;;;;;28.27;45.58;97965.06;6156157;23;20166;-93
2022/09/17 00:10:12;;;;;;;4.00;1.40;;;;;;;28.22;46.04;97959.50;6155704;23;20221;-93
2022/09/17 00:12:41;;;;;;;6.60;1.80;;;;;;;28.21;45.70;97963.22;6156176;23;20159;-93
2022/09/17 00:15:09;;;;;;;4.30;1.50;;;;;;;28.28;46.09;97972.06;6155858;23;20210;-94
2022/09/17 00:17:36;;;;;;;5.15;1.90;;;;;;;28.29;46.28;97983.69;6155840;23;20159;-93
2022/09/17 00:20:04;;;;;;;4.70;1.40;;;;;;;28.24;46.74;97983.53;6155460;23;20159;-93
2022/09/17 00:22:34;;;;;;;3.65;1.38;;;;;;;28.26;46.47;97987.66;6155145;23;20159;-94
2022/09/17 00:25:10;;;;;;;;;;;;;;;;;;;;;
2022/09/17 00:27:37;;;;;;;2.92;1.40;;;;;;;28.27;45.75;97980.41;6150314;23;20237;-93
2022/09/17 00:30:05;;;;;;;5.57;1.40;;;;;;;28.24;45.97;97978.13;6155924;23;20242;-93
2022/09/17 00:32:31;;;;;;;4.82;1.77;;;;;;;28.15;46.17;97974.88;6155441;23;20445;-93
2022/09/17 00:34:58;;;;;;;3.80;1.70;;;;;;;28.07;46.20;97974.34;6155497;23;20162;-94
2022/09/17 00:37:25;;;;;;;2.33;1.17;;;;;;;28.08;46.11;97973.28;6155564;23;20155;-93
2022/09/17 00:39:51;;;;;;;3.67;1.13;;;;;;;27.99;46.13;97967.31;6155215;23;20166;-93
2022/09/17 00:42:18;;;;;;;5.82;1.88;;;;;;;27.94;46.30;97977.91;6155804;23;20245;-93
2022/09/17 00:44:53;;;;;;;3.42;1.30;;;;;;;27.95;46.44;97980.41;6155387;23;20179;-92
2022/09/17 00:47:38;;;;;;;3.05;1.77;;;;;;;27.91;46.54;97987.25;6155314;23;20575;-93
2022/09/17 00:50:15;;;;;;;2.40;1.30;;;;;;;27.84;46.41;97991.06;6155281;23;20151;-93
2022/09/17 00:53:14;;;;;;;6.25;1.35;;;;;;;27.83;46.71;97984.03;6155454;23;20143;-93
2022/09/17 00:55:54;;;;;;;6.85;1.83;;;;;;;27.72;47.54;97971.25;6136723;23;20151;-92
2022/09/17 00:58:23;;;;;;;3.70;1.48;;;;;;;27.78;47.26;97968.50;6155463;23;20143;-92
2022/09/17 01:00:50;;;;;;;5.65;1.85;;;;;;;27.79;48.06;97974.72;6154975;23;20241;-92
2022/09/17 01:03:15;;;;;;;3.33;1.75;;;;;;;27.74;47.65;97969.16;6156299;23;20570;-92
2022/09/17 01:05:52;;;;;;;4.38;1.30;;;;;;;27.70;47.85;97967.97;6155029;23;20261;-93
2022/09/17 01:08:48;;;;;;;3.83;1.55;;;;;;;27.69;46.82;97966.31;6155500;23;20182;-93
2022/09/17 01:11:49;;;;;;;4.38;1.30;;;;;;;27.67;47.10;97974.63;6155440;23;20162;-92
2022/09/17 01:14:44;;;;;;;4.72;1.15;;;;;;;27.53;46.50;97967.66;6155298;23;20146;-92
2022/09/17 01:17:15;;;;;;;7.60;1.48;;;;;;;27.55;45.97;97970.09;6155193;23;20492;-92
2022/09/17 01:19:59;;;;;;;3.00;1.23;;;;;;;27.50;45.54;97964.56;6155249;23;20158;-92
2022/09/17 01:22:58;;;;;;;4.07;1.08;;;;;;;27.41;45.03;97964.00;6155734;23;20174;-93
2022/09/17 01:25:33;;;;;;;4.80;1.40;;;;;;;27.34;44.71;97955.91;6155211;23;20203;-92
2022/09/17 01:28:17;;;;;;;5.03;1.00;;;;;;;27.34;44.30;97961.31;6157261;23;20266;-93
2022/09/17 01:31:02;;;;;;;3.67;0.98;;;;;;;27.32;44.54;97970.63;6155561;23;20159;-93
2022/09/17 01:33:54;;;;;;;2.80;1.25;;;;;;;27.26;44.30;97974.16;6155360;23;20144;-93
2022/09/17 01:36:44;;;;;;;5.25;1.00;;;;;;;27.22;44.13;97967.56;6155419;23;20140;-93
2022/09/17 01:39:58;;;;;;;;;;;;;;;;;;;;;
2022/09/17 01:43:00;;;;;;;2.90;1.20;;;;;;;27.13;44.25;97983.13;6157282;23;20214;-92
2022/09/17 01:45:43;;;;;;;3.93;0.80;;;;;;;27.10;44.89;97980.03;6119688;23;20202;-93
2022/09/17 01:48:39;;;;;;;11.82;1.13;;;;;;;27.07;44.47;97973.22;6156646;23;20135;-92
2022/09/17 01:54:27;;;;;;;2.40;0.83;;;;;;;27.03;44.78;97961.25;6156580;23;20555;-94
2022/09/17 01:57:48;;;;;;;2.37;0.83;;;;;;;26.98;44.67;97955.69;6155137;23;20182;-95
2022/09/17 02:00:21;;;;;;;4.28;0.77;;;;;;;26.83;44.69;97955.91;6133313;23;20155;-94
2022/09/17 02:03:30;;;;;;;4.37;1.17;;;;;;;26.71;45.35;97956.75;6157150;23;20149;-94
2022/09/17 02:06:08;;;;;;;2.38;1.00;;;;;;;26.55;45.95;97971.47;6129011;23;20210;-94
2022/09/17 02:08:57;;;;;;;6.93;1.20;;;;;;;26.65;45.33;97960.31;6156959;23;20222;-94
2022/09/17 02:11:25;;;;;;;2.50;1.13;;;;;;;26.47;46.20;97965.50;6157650;23;20217;-93
2022/09/17 02:14:17;;;;;;;2.23;1.07;;;;;;;26.34;46.67;97960.97;6158103;23;20183;-93
2022/09/17 02:17:00;;;;;;;;;;;;;;;;;;;;;
2022/09/17 02:19:41;;;;;;;6.47;1.20;;;;;;;26.43;46.54;97972.34;6158860;23;20238;-93
2022/09/17 02:22:50;;;;;;;3.40;1.07;;;;;;;26.41;46.11;97966.34;6157395;23;20147;-94
2022/09/17 02:26:00;;;;;;;;;;;;;;;;;;;;;
2022/09/17 02:29:00;;;;;;;2.43;0.80;;;;;;;26.20;47.04;97953.97;6158052;23;20233;-94
2022/09/17 02:31:30;;;;;;;4.23;1.40;;;;;;;26.17;47.23;97949.84;6156737;23;20234;-92
2022/09/17 02:34:09;;;;;;;4.70;1.00;;;;;;;26.10;47.42;97954.34;6157140;23;20226;-94
2022/09/17 02:36:40;;;;;;;6.37;1.40;;;;;;;26.12;47.66;97951.47;6156933;23;20151;-94
2022/09/17 02:39:08;;;;;;;3.60;0.93;;;;;;;26.09;47.90;97935.78;6156810;23;20147;-93
2022/09/17 02:42:03;;;;;;;5.80;1.60;;;;;;;25.98;47.87;97934.53;6156938;23;20572;-93
2022/09/17 02:45:06;;;;;;;3.30;1.03;;;;;;;25.89;48.36;97935.75;6157616;23;20187;-93
2022/09/17 02:48:10;;;;;;;4.67;1.37;;;;;;;25.81;48.81;97936.00;6156666;23;20150;-92
2022/09/17 02:50:55;;;;;;;3.40;1.20;;;;;;;25.75;48.68;97936.81;6157070;23;20154;-93
2022/09/17 02:53:42;;;;;;;2.40;0.90;;;;;;;25.73;48.72;97930.00;6156505;23;20577;-93
2022/09/17 02:56:45;;;;;;;1.80;0.73;;;;;;;25.62;48.86;97926.06;6156516;23;20207;-94
2022/09/17 02:59:42;;;;;;;7.37;1.10;;;;;;;25.52;49.00;97929.13;6136491;23;20226;-92
2022/09/17 03:02:15;;;;;;;2.57;1.20;;;;;;;25.43;49.16;97916.06;6156537;23;20149;-93
2022/09/17 03:04:41;;;;;;;7.10;1.20;;;;;;;25.43;49.18;97905.34;6135784;23;20292;-92
2022/09/17 03:07:10;;;;;;;2.97;1.27;;;;;;;25.40;49.04;97909.25;6161931;23;20249;-93
2022/09/17 03:09:38;;;;;;;3.07;0.80;;;;;;;25.42;49.47;97917.13;6161125;23;20166;-93
2022/09/17 03:12:05;;;;;;;4.73;0.90;;;;;;;25.40;49.08;97924.53;6161171;23;20154;-92
2022/09/17 03:14:33;;;;;;;4.43;1.53;;;;;;;25.32;49.09;97914.00;6161620;23;20578;-93
2022/09/17 03:17:01;;;;;;;2.87;1.13;;;;;;;25.22;49.61;97910.88;6161141;23;20151;-92
2022/09/17 03:19:26;;;;;;;1.83;1.00;;;;;;;25.17;49.51;97910.66;6162382;23;20158;-92
2022/09/17 03:21:53;;;;;;;4.60;1.30;;;;;;;25.13;49.67;97896.81;6161268;23;20487;-92
2022/09/17 03:24:20;;;;;;;4.17;1.33;;;;;;;25.08;49.82;97901.16;6161074;23;20188;-93
2022/09/17 03:26:48;;;;;;;2.27;1.07;;;;;;;25.10;49.94;97912.50;6161200;23;20163;-93
2022/09/17 03:29:15;;;;;;;2.67;0.97;;;;;;;24.91;50.78;97908.72;6186100;23;20154;-93
2022/09/17 03:31:42;;;;;;;3.67;1.23;;;;;;;24.87;50.32;97908.28;6161148;23;20221;-93
2022/09/17 03:34:09;;;;;;;3.47;1.37;;;;;;;24.86;50.36;97903.97;6161703;23;20161;-93
2022/09/17 03:36:36;;;;;;;2.43;0.87;;;;;;;24.88;50.11;97909.97;6161378;23;20166;-93
2022/09/17 03:39:03;;;;;;;5.13;1.10;;;;;;;24.82;50.57;97905.38;6160900;23;20150;-93
2022/09/17 03:41:30;;;;;;;9.33;1.60;;;;;;;24.78;50.72;97912.19;6161681;23;20478;-94
2022/09/17 03:43:55;;;;;;;3.67;1.10;;;;;;;24.77;50.66;97902.44;6161388;23;20220;-92
2022/09/17 03:46:21;;;;;;;4.13;1.60;;;;;;;24.58;51.73;97899.69;6160925;23;20186;-93
2022/09/17 03:48:46;;;;;;;8.57;1.60;;;;;;;24.59;51.26;97893.28;6161499;23;20154;-93
2022/09/17 03:51:12;;;;;;;3.47;1.07;;;;;;;24.61;50.78;97885.88;6160935;23;20158;-94
2022/09/17 03:53:39;;;;;;;3.50;1.10;;;;;;;24.57;50.76;97887.31;6160624;23;20161;-92
2022/09/17 03:56:06;;;;;;;4.13;1.57;;;;;;;24.51;51.16;97885.41;6161328;23;20151;-92
2022/09/17 03:58:36;;;;;;;5.60;1.23;;;;;;;24.48;51.21;97881.28;6160955;23;20150;-92
2022/09/17 04:01:03;;;;;;;7.87;1.20;;;;;;;24.48;50.58;97870.56;6160701;23;20158;-92
2022/09/17 04:03:31;;;;;;;5.30;1.40;;;;;;;24.51;50.37;97875.53;6161231;23;20165;-92
2022/09/17 04:05:56;;;;;;;1.83;0.73;;;;;;;24.52;50.37;97868.34;6160374;23;20202;-92
2022/09/17 04:08:22;;;;;;;6.07;1.00;;;;;;;24.44;50.66;97862.13;6160789;23;20174;-93
2022/09/17 04:10:50;;;;;;;2.23;1.40;;;;;;;24.36;51.13;97856.09;6161020;23;20166;-93
2022/09/17 04:13:18;;;;;;;2.60;1.13;;;;;;;24.29;51.58;97855.25;6160854;23;20161;-94
2022/09/17 04:15:46;;;;;;;3.33;1.20;;;;;;;24.29;51.54;97855.25;6160715;23;20160;-93
2022/09/17 04:18:15;;;;;;;3.13;1.13;;;;;;;24.33;51.74;97857.31;6185385;23;20159;-92
2022/09/17 04:20:42;;;;;;;5.43;1.33;;;;;;;24.27;52.08;97843.88;6160713;23;20158;-93
2022/09/17 04:23:11;;;;;;;2.03;1.40;;;;;;;24.26;51.75;97836.91;6161215;23;20154;-93
2022/09/17 04:25:36;;;;;;;3.47;1.17;;;;;;;24.20;52.41;97837.69;6160370;23;20185;-93
2022/09/17 04:28:03;;;;;;;4.10;1.60;;;;;;;24.16;52.86;97839.91;6161081;23;20158;-93
2022/09/17 04:30:30;;;;;;;7.57;1.70;;;;;;;24.20;52.66;97829.66;6185463;23;20158;-94
2022/09/17 04:32:56;;;;;;;7.97;2.30;;;;;;;24.28;52.77;97842.88;6161153;23;20161;-94
2022/09/17 04:35:23;;;;;;;7.23;1.13;;;;;;;24.35;52.23;97851.75;6160628;23;20151;-93
2022/09/17 04:37:56;;;;;;;3.80;1.10;;;;;;;24.35;52.53;97862.47;6160960;23;20250;-92
2022/09/17 04:40:23;;;;;;;7.93;2.00;;;;;;;24.35;52.14;97849.06;6160487;23;20161;-94
2022/09/17 04:42:54;;;;;;;3.17;1.53;;;;;;;24.27;52.35;97851.91;6160511;23;20237;-92
2022/09/17 04:45:22;;;;;;;7.07;1.50;;;;;;;24.27;52.52;97857.28;6160416;23;20178;-93
2022/09/17 04:47:51;;;;;;;3.20;1.10;;;;;;;24.36;52.22;97873.00;6160161;23;20162;-92
2022/09/17 04:50:19;;;;;;;4.17;1.57;;;;;;;24.39;52.03;97883.31;6160551;23;20189;-92
2022/09/17 04:52:47;;;;;;;5.70;1.50;;;;;;;24.39;52.74;97871.78;6160572;23;20155;-92
2022/09/17 04:55:14;;;;;;;5.10;1.33;;;;;;;24.36;53.06;97867.66;6184898;23;20155;-93
2022/09/17 04:57:54;;;;;;;1.90;1.00;;;;;;;24.39;53.47;97869.09;6185146;23;20158;-93
2022/09/17 05:00:21;;;;;;;8.10;1.40;;;;;;;24.39;53.61;97861.06;6160440;23;20146;-93
2022/09/17 05:02:52;;;;;;;8.10;1.50;;;;;;;24.41;54.24;97861.69;6185386;23;20258;-93
2022/09/17 05:05:18;;;;;;;4.63;1.40;;;;;;;24.51;53.98;97848.75;6160126;23;20661;-93
2022/09/17 05:07:44;;;;;;;3.23;0.97;;;;;;;24.52;54.03;97849.59;6160085;23;20463;-92
2022/09/17 05:10:13;;;;;;;4.20;1.07;;;;;;;24.54;54.43;97848.34;6185922;23;20209;-92
2022/09/17 05:12:39;;;;;;;7.87;1.47;;;;;;;24.66;54.39;97845.94;6184965;23;20155;-91
2022/09/17 05:15:07;;;;;;;9.83;1.57;;;;;;;24.81;54.50;97839.44;6160058;23;20162;-93
2022/09/17 05:17:33;;;;;;;5.70;1.70;;;;;;;25.00;53.86;97833.28;6160156;23;20634;-93
2022/09/17 05:20:03;;;;;;;6.50;1.60;;;;;;;25.13;54.04;97834.34;6160227;23;20162;-93
2022/09/17 05:22:32;;;;;;;6.63;0.90;;;;;;;25.17;53.79;97838.25;6185490;23;20174;-93
2022/09/17 05:24:59;;;;;;;3.90;1.60;;;;;;;25.20;54.02;97827.13;6159766;23;20530;-92
2022/09/17 05:27:24;;;;;;;4.73;1.40;;;;;;;25.36;54.11;97832.09;6160125;23;20232;-93
2022/09/17 05:29:51;;;;;;;4.40;1.40;;;;;;;25.24;53.04;97836.38;6157476;23;20158;-93
2022/09/17 05:32:18;;;;;;;4.80;1.40;;;;;;;25.40;54.03;97823.41;6160517;23;20165;-92
2022/09/17 05:34:45;;;;;;;2.50;1.37;;;;;;;25.68;52.99;97817.88;6160382;23;20151;-93
2022/09/17 05:37:12;;;;;;;8.20;1.57;;;;;;;25.82;52.95;97806.06;6160331;23;20150;-94
2022/09/17 05:39:39;;;;;;;6.17;2.20;;;;;;;25.70;52.39;97807.75;6160200;23;20155;-92
2022/09/17 05:42:06;;;;;;;4.70;2.20;;;;;;;25.83;52.37;97793.50;6160013;23;20166;-93
2022/09/17 05:44:35;;;;;;;3.90;2.50;;;;;;;25.86;52.75;97796.59;6186223;23;20174;-93
2022/09/17 05:47:02;;;;;;;4.93;2.43;;;;;;;26.01;52.13;97815.13;6160071;23;20158;-93
2022/09/17 05:49:29;;;;;;;12.67;2.73;;;;;;;26.26;51.80;97818.00;6160059;23;20186;-93
2022/09/17 05:51:56;;;;;;;8.47;3.03;;;;;;;26.30;51.56;97824.59;6185875;23;20151;-93
2022/09/17 05:54:23;;;;;;;6.67;3.10;;;;;;;26.54;51.45;97821.19;6159122;23;20570;-93
2022/09/17 05:56:55;;;;;;;6.53;2.13;;;;;;;26.76;51.31;97823.34;6160268;23;20158;-92
2022/09/17 05:59:22;;;;;;;6.07;2.30;;;;;;;26.87;51.13;97815.69;6160008;23;20233;-93
2022/09/17 06:01:49;;;;;;;13.13;2.63;;;;;;;27.08;50.59;97823.41;6159588;23;20150;-94
2022/09/17 06:04:16;;;;;;;4.90;2.40;;;;;;;27.30;50.04;97828.25;6185619;23;20154;-93
2022/09/17 06:06:42;;;;;;;4.87;2.07;;;;;;;27.38;48.53;97822.56;6159717;23;20281;-92
2022/09/17 06:09:11;;;;;;;10.75;2.83;;;;;;;27.57;48.81;97833.44;6160342;23;20510;-93
2022/09/17 06:11:51;;;;;;;8.00;2.45;;;;;;;27.75;48.23;97825.41;6159946;23;20189;-93
2022/09/17 06:14:20;;;;;;;4.97;1.90;;;;;;;27.98;48.34;97821.03;6159891;23;20142;-92
2022/09/17 06:16:49;;;;;;;5.85;2.03;;;;;;;28.21;47.41;97825.81;6161017;23;20151;-93
2022/09/17 06:19:16;;;;;;;4.70;1.83;;;;;;;28.30;47.54;97816.34;6159936;23;20151;-93
2022/09/17 06:21:43;;;;;;;11.05;3.10;;;;;;;28.54;46.63;97822.72;6159850;23;20485;-93
2022/09/17 06:24:09;;;;;;;6.07;2.33;;;;;;;28.87;46.36;97830.41;6159879;23;20155;-92
2022/09/17 06:26:36;;;;;;;5.72;2.30;;;;;;;29.23;45.11;97841.13;6160202;23;20486;-93
2022/09/17 06:29:09;;;;;;;5.45;2.55;;;;;;;29.55;45.22;97844.38;6160109;23;20159;-93
2022/09/17 06:34:59;;;;;;;;;;;;;;;;;;;;;
2022/09/17 06:38:10;;;;;;;;;;;;;;;;;;;;;
2022/09/17 06:41:19;;;;;;;;;;;;;;;;;;;;;
2022/09/17 06:44:01;;;;;;;;;;;;;;;;;;;;;
2022/09/17 06:51:05;;;;;;;;;;;;;;;;;;;;;
2022/09/17 07:11:43;;;;;;;3.05;1.50;;;;;;;34.98;34.42;97904.34;5715696;25;20180;-94
2022/09/17 07:22:26;;;;;;;;;;;;;;;;;;;;;
2022/09/17 07:25:53;;;;;;;;;;;;;;;;;;;;;
2022/09/17 07:42:24;;;;;;;3.63;1.55;;;;;;;33.04;36.54;97906.78;5995936;23;20270;-94
2022/09/17 07:45:33;;;;;;;;;;;;;;;;;;;;;
2022/09/17 08:03:28;;;;;;;;;;;;;;;;;;;;;
2022/09/17 08:10:26;;;;;;;;;;;;;;;;;;;;;
2022/09/17 08:13:43;;;;;;;;;;;;;;;;;;;;;
2022/09/17 08:27:05;;;;;;;;;;;;;;;;;;;;;
2022/09/17 08:29:32;;;;;;;7.60;2.83;;;;;;;32.05;38.94;97854.41;5768190;24;20250;-94
2022/09/17 08:32:14;;;;;;;4.82;2.25;;;;;;;32.42;37.71;97850.03;5789041;24;20166;-94
2022/09/17 08:38:22;;;;;;;;;;;;;;;;;;;;;
2022/09/17 08:41:13;;;;;;;9.13;1.80;;;;;;;32.85;37.21;97849.25;6067985;23;20236;-95
2022/09/17 08:43:58;;;;;;;;;;;;;;;;;;;;;
2022/09/17 09:39:21;;;;;;;6.53;1.90;;;;;;;33.82;35.37;97808.41;5892067;24;20229;-96
2022/09/17 09:49:15;;;;;;;;;;;;;;;;;;;;;
2022/09/17 09:52:11;;;;;;;5.10;1.58;;;;;;;34.30;34.76;97788.31;5938200;24;20250;-95
2022/09/17 10:30:15;;;;;;;6.47;1.40;;;;;;;36.51;29.25;97732.28;6106813;23;20202;-93
2022/09/17 10:33:13;;;;;;;4.78;0.95;;;;;;;37.02;28.08;97732.81;6185451;23;20155;-93
2022/09/17 10:36:08;;;;;;;;;;;;;;;;;;;;;
2022/09/17 10:42:27;;;;;;;;;;;;;;;;;;;;;
2022/09/17 10:48:20;;;;;;;5.85;1.13;;;;;;;37.60;27.71;97700.91;6143920;23;20158;-94
2022/09/17 10:54:48;;;;;;;2.00;0.93;;;;;;;38.07;27.70;97696.31;6134855;23;20166;-95
2022/09/17 10:57:40;;;;;;;2.00;0.90;;;;;;;38.09;27.37;97691.34;6151621;23;20154;-95
2022/09/17 11:00:28;;;;;;;3.95;0.98;;;;;;;38.31;27.42;97687.28;6175612;23;20158;-95
2022/09/17 11:03:12;;;;;;;3.88;1.23;;;;;;;38.41;27.58;97673.47;6187103;23;20204;-94
2022/09/17 11:06:30;;;;;;;4.03;1.02;;;;;;;38.62;26.66;97675.63;6186328;23;20181;-95
2022/09/17 11:09:45;;;;;;;5.28;1.38;;;;;;;38.83;27.16;97669.84;6187150;23;20138;-95
2022/09/17 11:12:50;;;;;;;2.95;1.30;;;;;;;38.85;26.78;97673.09;6186395;23;20161;-96
2022/09/17 11:15:56;;;;;;;;;;;;;;;;;;;;;
2022/09/17 11:18:39;;;;;;;4.50;0.73;;;;;;;38.89;26.00;97669.47;6187335;23;20649;-95
2022/09/17 11:21:44;;;;;;;7.25;1.88;;;;;;;38.98;26.79;97659.47;6185809;23;20147;-95
2022/09/17 11:24:45;;;;;;;3.42;1.00;;;;;;;38.78;26.10;97662.53;6095718;23;20242;-94
2022/09/17 11:27:46;;;;;;;;;;;;;;;;;;;;;
2022/09/17 11:34:24;;;;;;;7.25;1.52;;;;;;;38.92;26.94;97633.25;6033693;23;20169;-94
2022/09/17 11:37:31;;;;;;;5.25;1.00;;;;;;;39.10;26.82;97637.88;6073100;23;20573;-95
2022/09/17 11:41:06;;;;;;;;;;;;;;;;;;;;;
2022/09/17 11:43:36;;;;;;;2.38;1.08;;;;;;;39.01;26.72;97675.31;6187239;23;20222;-95
2022/09/17 11:46:49;;;;;;;4.45;1.38;;;;;;;38.85;27.00;97684.06;6186013;23;20167;-94
2022/09/17 11:49:40;;;;;;;3.78;1.88;;;;;;;38.75;30.23;97695.19;6072652;23;20532;-94
2022/09/17 11:52:16;;;;;;;7.25;1.73;;;;;;;37.80;31.86;97728.06;6072102;23;20180;-91
2022/09/17 11:55:20;;;;;;;5.38;1.15;;;;;;;36.83;32.91;97729.91;6072351;23;20141;-93
2022/09/17 11:58:16;;;;;;;6.13;1.17;;;;;;;36.00;32.31;97732.44;6072104;23;20156;-92
2022/09/17 12:01:10;;;;;;;3.08;0.80;;;;;;;35.84;33.66;97749.94;6074133;23;20155;-96
2022/09/17 12:03:49;;;;;;;5.63;1.20;;;;;;;35.19;33.30;97781.53;6128423;23;20218;-94
2022/09/17 12:06:28;;;;;;;5.15;0.73;;;;;;;34.06;33.58;97798.81;6187847;23;20181;-93
2022/09/17 12:09:31;;;;;;;3.28;0.60;;;;;;;32.83;35.94;97804.44;6188462;23;20146;-96
2022/09/17 12:12:22;;;;;;;6.00;1.00;;;;;;;32.38;36.46;97794.66;6065388;23;20156;-91
2022/09/17 12:15:40;;;;;;;2.45;0.85;;;;;;;32.12;36.40;97817.94;6062653;23;20485;-94
2022/09/17 12:18:53;;;;;;;2.25;1.15;;;;;;;31.01;39.95;97799.78;6041741;23;20200;-95
2022/09/17 12:21:43;;;;;;;4.75;1.33;;;;;;;30.13;42.12;97812.84;6098193;23;20500;-91
2022/09/17 12:28:20;;;;;;;5.38;2.05;;;;;;;29.48;46.10;97803.16;6077824;23;20172;-94
2022/09/17 12:31:07;;;;;;;3.05;1.00;;;;;;;29.19;47.37;97818.34;6072106;23;20168;-91
2022/09/17 12:34:28;;;;;;;;;;;;;;;;;;;;;
2022/09/17 12:37:36;;;;;;;2.15;0.45;;;;;;;28.60;48.95;97792.97;6089199;23;20163;-93
2022/09/17 12:40:37;;;;;;;3.03;0.80;;;;;;;28.49;49.83;97774.88;5987115;23;20182;-90
2022/09/17 12:47:35;;;;;;;1.90;0.45;;;;;;;28.76;50.24;97748.41;6036361;23;20199;-92
2022/09/17 12:50:36;;;;;;;4.05;0.68;;;;;;;28.40;52.52;97733.13;6126707;23;20164;-92
2022/09/17 12:57:05;;;;;;;0.98;0.55;;;;;;;28.46;48.77;97697.13;6104610;23;20163;-93
2022/09/17 13:03:33;;;;;;;5.82;0.75;;;;;;;29.25;45.01;97704.06;6121516;23;20247;-92
2022/09/17 13:06:42;;;;;;;1.52;0.55;;;;;;;29.39;44.00;97710.88;6094960;23;20181;-93
2022/09/17 13:14:03;;;;;;;;;;;;;;;;;;;;;
2022/09/17 13:17:23;;;;;;;0.40;0.08;;;;;;;30.39;40.23;97704.19;6039451;23;20248;-95
2022/09/17 13:20:55;;;;;;;0.75;0.15;;;;;;;30.72;39.48;97705.31;6031540;23;20469;-93
2022/09/17 13:23:55;;;;;;;0.40;0.10;;;;;;;30.73;39.42;97707.78;6008401;23;20214;-91
2022/09/17 13:26:55;;;;;;;3.50;0.20;;;;;;;30.98;39.48;97705.56;5986078;23;20213;-91
2022/09/17 13:29:46;;;;;;;3.13;0.43;;;;;;;31.19;39.05;97700.47;6010355;23;20169;-91
2022/09/17 13:32:38;;;;;;;0.65;0.20;;;;;;;31.62;38.39;97692.50;6009454;23;20155;-92
2022/09/17 13:35:18;;;;;;;1.17;0.32;;;;;;;31.73;37.78;97672.59;6008619;23;20164;-90
2022/09/17 13:38:06;;;;;;;;;;;;;;;;;;;;;
2022/09/17 13:40:41;;;;;;;5.25;0.30;;;;;;;31.55;37.64;97643.91;6050920;23;20236;-93
2022/09/17 13:44:09;;;;;;;0.57;0.32;;;;;;;31.69;37.77;97641.66;6048945;23;20156;-95
2022/09/17 13:57:08;;;;;;;;;;;;;;;;;;;;;
2022/09/17 14:00:44;;;;;;;;;;;;;;;;;;;;;
2022/09/17 14:03:33;;;;;;;0.55;0.10;;;;;;;32.33;36.23;97658.16;5983293;24;20572;-91
2022/09/17 14:06:07;;;;;;;1.17;0.10;;;;;;;32.54;36.37;97657.34;5983553;24;20187;-93
2022/09/17 14:09:47;;;;;;;;;;;;;;;;;;;;;
2022/09/17 14:12:57;;;;;;;0.60;0.20;;;;;;;32.98;36.22;97647.13;5955189;24;20238;-92
2022/09/17 14:29:39;;;;;;;2.65;0.57;;;;;;;33.49;34.70;97646.47;5955046;24;20187;-93
2022/09/17 14:49:29;;;;;;;1.27;0.45;;;;;;;33.04;35.40;97660.53;5819749;24;20186;-92
2022/09/17 15:38:03;;;;;;;;;;;;;;;;;;;;;
2022/09/17 15:52:50;;;;;;;;;;;;;;;;;;;;;
2022/09/17 16:17:00;;;;;;;;;;;;;;;;;;;;;
2022/09/17 16:20:17;;;;;;;;;;;;;;;;;;;;;
2022/09/17 16:34:03;;;;;;;3.25;0.52;;;;;;;30.29;40.89;97703.13;5714859;25;20181;-94
2022/09/17 16:36:44;;;;;;;;;;;;;;;;;;;;;
2022/09/17 16:39:23;;;;;;;0.75;0.15;;;;;;;29.85;41.50;97814.63;5740699;25;20586;-94
2022/09/17 16:46:02;;;;;;;5.35;1.90;;;;;;;28.34;46.71;97873.34;5849622;24;20204;-95
2022/09/17 16:48:49;;;;;;;5.18;1.65;;;;;;;27.26;54.44;97870.06;5919588;24;20214;-93
2022/09/17 16:51:26;;;;;;;5.88;0.80;;;;;;;26.55;59.50;97798.63;5983649;24;20157;-95
2022/09/17 16:54:09;;;;;;;2.17;0.67;;;;;;;25.99;62.55;97769.72;6093292;23;20237;-94
2022/09/17 16:57:36;;;;;;;1.50;0.30;;;;;;;24.84;65.32;97782.72;6133710;23;20147;-93
2022/09/17 17:14:04;;;;;;;3.63;0.63;;;;;;;23.71;71.98;97814.50;5985771;23;20169;-88
2022/09/17 17:16:34;;;;;;;2.20;0.40;;;;;;;23.97;72.51;97835.25;6008895;23;20154;-90
2022/09/17 17:19:01;;;;;;;1.03;0.30;;;;;;;24.08;71.59;97799.91;6139627;23;20598;-88
2022/09/17 17:21:28;;;;;;;2.73;0.30;;;;;;;24.08;70.84;97788.38;6128268;23;20532;-88
2022/09/17 17:23:55;;;;;;;2.60;0.40;;;;;;;24.12;70.02;97786.97;6154383;23;20516;-88
2022/09/17 17:26:22;;;;;;;0.93;0.20;;;;;;;24.13;69.24;97796.66;6129406;23;20202;-89
2022/09/17 17:28:48;;;;;;;0.77;0.30;;;;;;;24.25;68.62;97795.06;6152551;23;20151;-90
2022/09/17 17:31:15;;;;;;;0.30;0.03;;;;;;;24.26;68.34;97799.41;6154898;23;20147;-89
2022/09/17 17:33:42;;;;;;;2.63;0.10;;;;;;;24.28;69.32;97805.38;6155089;23;20222;-90
2022/09/17 17:36:09;;;;;;;2.83;0.23;;;;;;;24.24;68.67;97801.47;6154884;23;20629;-90
2022/09/17 17:38:36;;;;;;;4.00;0.30;;;;;;;24.18;68.18;97804.94;6154967;23;20159;-89
2022/09/17 17:41:13;;;;;;;0.57;0.03;;;;;;;24.14;68.25;97800.97;6154723;23;20154;-89
2022/09/17 17:43:40;;;;;;;2.87;0.40;;;;;;;24.17;67.90;97797.91;6155282;23;20611;-90
2022/09/17 17:46:09;;;;;;;1.40;0.07;;;;;;;24.07;68.38;97800.09;6129669;23;20194;-90
2022/09/17 17:48:38;;;;;;;0.33;0.10;;;;;;;23.93;69.29;97798.34;6155275;23;20174;-91
2022/09/17 17:51:12;;;;;;;1.30;0.10;;;;;;;23.89;69.05;97784.56;6129631;23;20535;-91
2022/09/17 17:53:41;;;;;;;1.63;0.20;;;;;;;23.98;69.21;97772.66;6129613;23;20655;-91
2022/09/17 17:56:09;;;;;;;3.03;0.23;;;;;;;24.08;68.87;97767.78;6155222;23;20155;-91
2022/09/17 17:58:35;;;;;;;0.57;0.10;;;;;;;24.18;68.82;97768.28;6129815;23;20155;-91
2022/09/17 18:01:14;;;;;;;1.70;0.57;;;;;;;24.23;68.32;97773.03;6129360;23;20599;-90
2022/09/17 18:03:41;;;;;;;0.23;0.00;;;;;;;24.15;69.64;97779.38;6129712;23;20169;-89
2022/09/17 18:06:08;;;;;;;0.20;0.03;;;;;;;24.06;70.09;97796.59;6129083;23;20182;-90
2022/09/17 18:08:36;;;;;;;0.30;0.13;;;;;;;24.02;71.74;97795.34;6129873;23;20151;-90
2022/09/17 18:11:07;;;;;;;1.50;0.23;;;;;;;24.02;72.50;97797.19;6130117;23;20598;-90
2022/09/17 18:13:38;;;;;;;0.87;0.20;;;;;;;24.21;71.34;97794.63;6129473;23;20143;-91
2022/09/17 18:16:07;;;;;;;0.63;0.30;;;;;;;24.34;70.56;97794.69;6130017;23;20210;-91
2022/09/17 18:19:06;;;;;;;1.17;0.20;;;;;;;24.47;70.63;97788.56;6129647;23;20166;-91
2022/09/17 18:32:03;;;;;;;1.43;0.40;;;;;;;24.28;72.41;97944.63;5980961;24;20165;-92
2022/09/17 18:34:49;;;;;;;3.40;0.40;;;;;;;23.60;74.23;97972.88;5962610;23;21125;-90
2022/09/17 18:37:17;;;;;;;2.30;0.73;;;;;;;22.77;75.26;98015.25;6036663;23;20165;-90
2022/09/17 18:39:47;;;;;;;2.80;0.50;;;;;;;22.50;76.55;98038.03;6037156;23;20590;-88
2022/09/17 18:42:15;;;;;;;5.00;1.10;;;;;;;22.12;79.08;98031.03;6036390;23;20237;-86
2022/09/17 18:44:41;;;;;;;8.53;1.50;;;;;;;22.06;78.23;98012.25;6037323;23;20236;-86
2022/09/17 18:47:08;;;;;;;11.13;1.13;;;;;;;22.12;77.17;98009.69;6062526;23;20171;-87
2022/09/17 18:49:35;;;;;;;3.37;0.97;;;;;;;22.27;77.84;97999.06;6042829;23;20242;-88
2022/09/17 18:52:02;;;;;;;1.87;0.70;;;;;;;22.28;76.93;97995.34;6067260;23;20173;-87
2022/09/17 18:54:28;;;;;;;3.20;0.30;;;;;;;22.26;77.45;97933.31;6067077;23;20171;-88
2022/09/17 18:56:55;;;;;;;2.57;0.57;;;;;;;22.71;75.54;97932.31;6042901;23;20239;-88
2022/09/17 18:59:20;;;;;;;1.87;0.27;;;;;;;22.98;74.22;97878.19;6125318;23;20229;-88
2022/09/17 19:01:47;;;;;;;0.60;0.20;;;;;;;23.14;73.10;97864.56;6155413;23;20474;-88
2022/09/17 19:04:14;;;;;;;1.20;0.30;;;;;;;23.20;72.88;97837.06;6156170;23;20497;-88
2022/09/17 19:06:41;;;;;;;2.20;0.37;;;;;;;23.23;74.38;97836.69;6156355;23;20198;-87
2022/09/17 19:09:08;;;;;;;7.27;0.80;;;;;;;23.21;74.15;97870.81;6130755;23;20563;-88
2022/09/17 19:11:35;;;;;;;5.43;0.73;;;;;;;23.12;75.96;97891.50;6156462;23;20147;-88
2022/09/17 19:14:08;;;;;;;2.70;0.47;;;;;;;23.05;75.93;97876.41;6156000;23;20247;-89
2022/09/17 19:16:35;;;;;;;5.93;0.70;;;;;;;23.12;75.91;97851.41;6156748;23;20132;-89
2022/09/17 19:19:06;;;;;;;5.50;0.93;;;;;;;23.36;75.14;97839.50;6156256;23;20217;-89
2022/09/17 19:21:57;;;;;;;2.40;0.77;;;;;;;23.57;74.47;97753.91;6156240;23;20135;-89
2022/09/17 19:25:18;;;;;;;;;;;;;;;;;;;;;
2022/09/17 19:27:57;;;;;;;6.57;1.47;;;;;;;22.66;79.20;97747.75;6067720;23;20258;-89
2022/09/17 19:30:28;;;;;;;10.03;4.27;;;;;;;22.89;77.82;97765.25;6154178;23;20483;-89
2022/09/17 19:33:02;;;;;;;1.83;0.97;;;;;;;22.90;78.36;97766.09;6156244;23;20142;-90
2022/09/17 19:35:28;;;;;;;6.33;0.73;;;;;;;22.42;81.61;97768.44;6154419;23;20199;-88